Time;durP1;ratioP1;P1;durP2;ratioP2;P2;SDS_P1;SDS_P2;PMS_P1;PMS_P2;Temp;Humidity;BMP_temperature;BMP_pressure;BME280_temperature;BME280_humidity;BME280_pressure;Samples;Min_cycle;Max_cycle;Signal;HPM_P1;HPM_P2
2021/05/16 00:01:08;;;;;;;8.30;6.60;;;12.60;99.90;;;;;;5038119;28;20443;-81
2021/05/16 00:03:35;;;;;;;15.17;12.93;;;12.70;99.90;;;;;;5035652;28;20541;-82
2021/05/16 00:06:02;;;;;;;6.33;5.80;;;12.60;99.90;;;;;;5039698;28;20526;-80
2021/05/16 00:08:28;;;;;;;2.60;2.40;;;12.70;99.90;;;;;;5049155;28;20446;-79
2021/05/16 00:10:55;;;;;;;11.90;10.27;;;12.60;99.90;;;;;;5047991;28;20447;-79
2021/05/16 00:13:21;;;;;;;2.70;2.50;;;;;;;;;;5046769;28;20443;-82
2021/05/16 00:15:48;;;;;;;2.13;1.97;;;12.60;99.90;;;;;;5050928;28;20463;-79
2021/05/16 00:18:14;;;;;;;2.23;1.90;;;12.60;99.90;;;;;;5050023;28;20485;-79
2021/05/16 00:20:41;;;;;;;2.23;2.13;;;12.60;99.90;;;;;;5049530;28;21041;-79
2021/05/16 00:23:07;;;;;;;2.30;2.10;;;12.60;99.90;;;;;;5053282;28;20423;-81
2021/05/16 00:25:34;;;;;;;1.87;1.77;;;12.60;99.90;;;;;;5053682;28;20499;-82
2021/05/16 00:28:00;;;;;;;2.90;2.53;;;12.60;99.90;;;;;;5046070;28;20439;-83
2021/05/16 00:30:28;;;;;;;2.40;2.20;;;12.50;99.90;;;;;;5037164;28;20527;-82
2021/05/16 00:32:54;;;;;;;1.90;1.43;;;12.60;99.90;;;;;;5035022;28;20461;-82
2021/05/16 00:35:23;;;;;;;2.27;2.07;;;12.60;99.90;;;;;;5044603;28;20419;-82
2021/05/16 00:37:50;;;;;;;2.80;2.00;;;12.60;99.90;;;;;;5044935;28;20443;-81
2021/05/16 00:40:17;;;;;;;2.00;1.90;;;12.60;99.90;;;;;;5034626;28;20522;-81
2021/05/16 00:42:44;;;;;;;2.00;1.90;;;12.50;99.90;;;;;;5037609;28;20446;-79
2021/05/16 00:45:13;;;;;;;2.17;1.83;;;12.50;99.90;;;;;;5046511;28;20467;-82
2021/05/16 00:47:40;;;;;;;2.20;2.00;;;12.50;99.90;;;;;;5035510;28;20473;-81
2021/05/16 00:50:08;;;;;;;2.60;1.80;;;12.20;99.90;;;;;;5034807;28;20470;-82
2021/05/16 00:52:35;;;;;;;2.23;1.83;;;12.40;99.90;;;;;;5034684;28;20443;-81
2021/05/16 00:55:01;;;;;;;2.10;1.90;;;12.40;99.90;;;;;;5034465;28;20457;-82
2021/05/16 00:57:28;;;;;;;3.33;1.87;;;12.40;99.90;;;;;;5035643;28;20466;-82
2021/05/16 00:59:54;;;;;;;3.30;1.93;;;12.30;99.90;;;;;;5038590;28;20471;-82
2021/05/16 01:02:20;;;;;;;2.80;1.90;;;12.30;99.90;;;;;;5036613;28;20458;-82
2021/05/16 01:04:46;;;;;;;2.00;1.90;;;12.30;99.90;;;;;;5036151;28;20443;-83
2021/05/16 01:07:12;;;;;;;1.77;1.67;;;12.30;99.90;;;;;;5036084;28;20543;-83
2021/05/16 01:09:45;;;;;;;3.03;2.50;;;12.20;99.90;;;;;;5036870;28;21021;-83
2021/05/16 01:12:13;;;;;;;2.30;2.10;;;12.10;99.90;;;;;;5037468;28;20427;-81
2021/05/16 01:14:42;;;;;;;1.83;1.73;;;12.20;99.90;;;;;;5036600;28;20461;-83
2021/05/16 01:17:08;;;;;;;1.70;1.60;;;12.10;99.90;;;;;;5037824;28;20454;-83
2021/05/16 01:19:35;;;;;;;2.30;2.10;;;12.10;99.90;;;;;;5037180;28;20470;-83
2021/05/16 01:22:05;;;;;;;2.10;1.90;;;12.20;99.90;;;;;;5035929;28;20446;-81
2021/05/16 01:24:31;;;;;;;2.37;2.17;;;12.10;99.90;;;;;;5035396;28;20457;-83
2021/05/16 01:26:59;;;;;;;1.83;1.73;;;12.10;99.90;;;;;;5035825;28;20510;-84
2021/05/16 01:29:26;;;;;;;1.90;1.80;;;12.10;99.90;;;;;;5036139;28;20519;-83
2021/05/16 01:31:52;;;;;;;1.90;1.80;;;12.00;99.90;;;;;;5039766;28;20450;-81
2021/05/16 01:34:18;;;;;;;2.10;2.00;;;11.90;99.90;;;;;;5046005;28;20451;-80
2021/05/16 01:36:44;;;;;;;2.13;1.93;;;11.90;99.90;;;;;;5047500;28;20443;-82
2021/05/16 01:39:14;;;;;;;1.80;1.70;;;11.90;99.90;;;;;;5048825;28;20492;-82
2021/05/16 01:41:40;;;;;;;2.10;1.90;;;11.80;99.90;;;;;;5045183;28;20437;-82
2021/05/16 01:44:10;;;;;;;3.40;2.10;;;11.70;99.90;;;;;;5049519;28;20954;-82
2021/05/16 01:46:36;;;;;;;2.53;2.43;;;11.70;99.90;;;;;;5046576;28;20489;-82
2021/05/16 01:49:03;;;;;;;3.30;2.10;;;11.70;99.90;;;;;;5044027;28;20523;-82
2021/05/16 01:51:30;;;;;;;2.43;2.00;;;11.70;99.90;;;;;;5045043;28;20446;-82
2021/05/16 01:53:56;;;;;;;1.80;1.70;;;11.70;99.90;;;;;;5045459;28;20484;-82
2021/05/16 01:56:25;;;;;;;2.00;1.90;;;11.60;99.90;;;;;;5048115;28;20457;-79
2021/05/16 01:58:51;;;;;;;2.47;2.23;;;11.60;99.90;;;;;;5043087;28;20467;-79
2021/05/16 02:01:18;;;;;;;2.53;2.33;;;11.50;99.90;;;;;;5047212;28;20477;-83
2021/05/16 02:03:45;;;;;;;2.90;2.17;;;11.60;99.90;;;;;;5043627;28;20446;-79
2021/05/16 02:06:11;;;;;;;2.30;2.17;;;11.40;99.90;;;;;;5041803;28;20508;-79
2021/05/16 02:08:40;;;;;;;2.27;2.07;;;11.30;99.90;;;;;;5042646;28;20473;-78
2021/05/16 02:11:06;;;;;;;2.00;1.90;;;11.30;99.90;;;;;;5041275;28;20447;-79
2021/05/16 02:13:36;;;;;;;2.77;2.40;;;11.00;99.90;;;;;;5038345;28;20450;-79
2021/05/16 02:16:02;;;;;;;2.53;2.33;;;11.00;99.90;;;;;;5036927;28;20442;-81
2021/05/16 02:18:28;;;;;;;2.57;2.40;;;11.00;99.90;;;;;;5036440;28;20446;-83
2021/05/16 02:20:54;;;;;;;2.70;2.50;;;11.00;99.90;;;;;;5036886;28;20546;-81
2021/05/16 02:23:20;;;;;;;4.00;2.37;;;10.90;99.90;;;;;;5036204;28;20478;-79
2021/05/16 02:25:49;;;;;;;2.20;2.10;;;10.90;99.90;;;;;;5040072;28;20449;-80
2021/05/16 02:28:16;;;;;;;2.60;2.40;;;11.00;99.90;;;;;;5037637;28;20478;-81
2021/05/16 02:30:43;;;;;;;2.53;2.43;;;11.10;99.90;;;;;;5038825;28;20474;-83
2021/05/16 02:33:09;;;;;;;7.33;5.30;;;11.00;99.90;;;;;;5046578;28;20422;-79
2021/05/16 02:35:36;;;;;;;2.80;2.60;;;11.00;99.90;;;;;;5042852;28;20847;-79
2021/05/16 02:38:02;;;;;;;3.00;2.70;;;11.10;99.90;;;;;;5043043;28;20447;-78
2021/05/16 02:40:28;;;;;;;2.70;2.50;;;11.00;99.90;;;;;;5042226;28;20819;-79
2021/05/16 02:42:55;;;;;;;3.20;3.00;;;11.00;99.90;;;;;;5040992;28;20453;-80
2021/05/16 02:45:21;;;;;;;2.77;2.57;;;11.00;99.90;;;;;;5046692;28;20457;-79
2021/05/16 02:47:48;;;;;;;2.70;2.50;;;11.00;99.90;;;;;;5047527;28;20442;-79
2021/05/16 02:50:15;;;;;;;3.00;2.80;;;10.80;99.90;;;;;;5048768;28;20472;-82
2021/05/16 02:52:42;;;;;;;3.30;3.00;;;11.00;99.90;;;;;;5041200;28;20450;-79
2021/05/16 02:55:09;;;;;;;2.70;2.50;;;10.80;99.90;;;;;;5048395;28;20472;-79
2021/05/16 02:57:35;;;;;;;3.03;2.47;;;11.00;99.90;;;;;;5048435;28;20911;-80
2021/05/16 03:00:01;;;;;;;2.70;2.50;;;10.80;99.90;;;;;;5047480;28;20455;-80
2021/05/16 03:02:27;;;;;;;2.47;2.20;;;10.90;99.90;;;;;;5047746;28;20480;-80
2021/05/16 03:04:54;;;;;;;2.83;2.50;;;10.70;99.90;;;;;;5046745;28;20446;-83
2021/05/16 03:07:20;;;;;;;6.07;2.97;;;10.70;99.90;;;;;;5045789;28;20494;-82
2021/05/16 03:09:47;;;;;;;3.53;2.97;;;10.70;99.90;;;;;;5047403;28;20491;-82
2021/05/16 03:12:14;;;;;;;2.80;2.60;;;10.70;99.90;;;;;;5048569;28;20921;-82
2021/05/16 03:14:40;;;;;;;2.70;2.50;;;10.80;99.90;;;;;;5043548;28;20446;-80
2021/05/16 03:17:06;;;;;;;4.03;2.00;;;10.80;99.90;;;;;;5043327;28;20446;-79
2021/05/16 03:19:33;;;;;;;2.33;2.13;;;10.80;99.90;;;;;;5043805;28;20528;-80
2021/05/16 03:22:01;;;;;;;3.33;2.23;;;11.10;99.90;;;;;;5046722;28;20816;-80
2021/05/16 03:24:28;;;;;;;3.20;2.67;;;10.70;99.90;;;;;;5037534;28;20458;-81
2021/05/16 03:26:54;;;;;;;2.80;2.33;;;10.50;99.90;;;;;;5035693;28;21008;-80
2021/05/16 03:29:20;;;;;;;2.57;2.37;;;10.70;99.90;;;;;;5037757;28;20559;-81
2021/05/16 03:31:46;;;;;;;3.33;2.83;;;11.30;99.90;;;;;;5035685;28;20446;-81
2021/05/16 03:34:12;;;;;;;2.90;2.70;;;10.90;99.90;;;;;;5035870;28;20446;-81
2021/05/16 03:36:38;;;;;;;7.10;2.20;;;10.70;99.90;;;;;;5035876;28;20446;-83
2021/05/16 03:39:07;;;;;;;3.13;2.60;;;10.70;99.90;;;;;;5034076;28;20485;-81
2021/05/16 03:41:33;;;;;;;2.07;1.97;;;10.80;99.90;;;;;;5036935;28;20917;-81
2021/05/16 03:44:00;;;;;;;2.40;2.20;;;10.90;99.90;;;;;;5038430;28;20450;-80
2021/05/16 03:46:26;;;;;;;2.53;2.37;;;10.90;99.90;;;;;;5037684;28;20871;-82
2021/05/16 03:48:52;;;;;;;2.83;2.63;;;10.90;99.90;;;;;;5038480;28;20466;-81
2021/05/16 03:51:18;;;;;;;2.47;2.37;;;10.90;99.90;;;;;;5037865;28;20454;-82
2021/05/16 03:53:44;;;;;;;2.70;2.57;;;10.90;99.90;;;;;;5037882;28;20473;-81
2021/05/16 03:56:11;;;;;;;2.97;2.77;;;10.90;99.90;;;;;;5037941;28;20447;-83
2021/05/16 03:58:38;;;;;;;2.50;2.30;;;10.80;99.90;;;;;;5040512;28;20442;-82
2021/05/16 04:01:04;;;;;;;4.17;2.57;;;10.90;99.90;;;;;;5037573;28;20496;-81
2021/05/16 04:03:30;;;;;;;3.37;2.30;;;10.90;99.90;;;;;;5037804;28;20482;-81
2021/05/16 04:05:56;;;;;;;2.23;2.13;;;10.90;99.90;;;;;;5038313;28;20481;-80
2021/05/16 04:08:23;;;;;;;2.60;2.40;;;10.90;99.90;;;;;;5037870;28;20817;-79
2021/05/16 04:10:51;;;;;;;2.87;2.67;;;10.90;99.90;;;;;;5045817;28;20439;-80
2021/05/16 04:13:18;;;;;;;2.80;2.60;;;11.00;99.90;;;;;;5037502;28;20451;-81
2021/05/16 04:15:45;;;;;;;2.50;2.30;;;11.00;99.90;;;;;;5037058;28;20968;-82
2021/05/16 04:18:11;;;;;;;2.10;1.90;;;11.10;99.90;;;;;;5035368;28;21069;-79
2021/05/16 04:20:37;;;;;;;2.43;2.23;;;11.70;99.90;;;;;;5036440;28;20467;-82
2021/05/16 04:23:03;;;;;;;2.60;2.40;;;11.40;99.90;;;;;;5037756;28;20462;-82
2021/05/16 04:25:29;;;;;;;2.65;2.42;;;10.60;99.90;;;;;;5037218;28;20441;-82
2021/05/16 04:27:55;;;;;;;2.43;2.23;;;11.30;99.90;;;;;;5039755;28;20203;-83
2021/05/16 04:30:23;;;;;;;2.70;2.33;;;11.10;99.90;;;;;;5046217;28;20470;-80
2021/05/16 04:32:49;;;;;;;2.77;2.57;;;11.20;99.90;;;;;;5040816;28;20450;-79
2021/05/16 04:35:15;;;;;;;2.13;2.03;;;11.30;99.90;;;;;;5038518;28;20447;-82
2021/05/16 04:37:41;;;;;;;2.27;2.17;;;11.30;99.90;;;;;;5036661;28;20821;-82
2021/05/16 04:45:40;;;;;;;2.17;1.90;;;;;;;;;;4225671;26;20461;-88
2021/05/16 04:48:39;;;;;;;2.67;2.47;;;11.70;99.90;;;;;;5093416;28;20222;-87
2021/05/16 04:51:37;;;;;;;2.20;2.10;;;11.70;99.90;;;;;;5116649;28;20442;-89
2021/05/16 04:54:18;;;;;;;2.53;2.33;;;;;;;;;;5119171;28;20439;-89
2021/05/16 04:57:19;;;;;;;3.37;2.87;;;11.70;99.90;;;;;;5118962;28;20407;-91
2021/05/16 05:00:26;;;;;;;2.20;2.10;;;11.60;99.90;;;;;;5118770;28;20462;-89
2021/05/16 05:06:15;;;;;;;2.63;2.43;;;;;;;;;;5031268;28;20475;-88
2021/05/16 05:09:02;;;;;;;2.20;2.00;;;;;;;;;;5110657;28;20451;-88
2021/05/16 05:18:32;;;;;;;5.00;2.40;;;11.50;99.90;;;;;;5114119;28;20427;-91
2021/05/16 05:21:16;;;;;;;2.20;2.00;;;;;;;;;;5116844;28;20466;-89
2021/05/16 05:23:56;;;;;;;3.00;2.60;;;;;;;;;;5112861;28;20443;-89
2021/05/16 05:38:39;;;;;;;2.63;2.43;;;;;;;;;;5099196;28;20566;-88
2021/05/16 05:42:00;;;;;;;2.20;2.10;;;11.90;99.90;;;;;;5121776;28;20422;-89
2021/05/16 05:44:41;;;;;;;2.30;2.10;;;11.80;99.90;;;;;;5122370;28;20467;-89
2021/05/16 05:50:38;;;;;;;2.20;2.10;;;11.80;99.90;;;;;;5118299;28;20462;-88
2021/05/16 05:53:21;;;;;;;2.13;2.03;;;;;;;;;;5107288;28;20428;-90
2021/05/16 05:56:31;;;;;;;3.22;2.40;;;11.80;99.90;;;;;;5121398;28;20440;-89
2021/05/16 05:59:13;;;;;;;2.70;2.50;;;;;;;;;;5119292;28;20192;-89
2021/05/16 06:01:44;;;;;;;2.60;2.40;;;;;;;;;;5117739;28;20422;-90
2021/05/16 06:04:11;;;;;;;2.60;2.40;;;;;;;;;;5121866;28;20430;-93
2021/05/16 06:07:12;;;;;;;3.83;2.30;;;12.10;99.90;;;;;;5121937;28;20467;-90
2021/05/16 06:13:21;;;;;;;2.63;2.07;;;;;;;;;;5119293;28;20459;-92
2021/05/16 06:15:52;;;;;;;2.90;2.60;;;;;;;;;;5118729;28;20447;-88
2021/05/16 06:18:49;;;;;;;2.53;2.33;;;;;;;;;;5115760;28;20447;-88
2021/05/16 06:21:22;;;;;;;2.20;2.00;;;;;;;;;;5120469;28;20467;-90
2021/05/16 06:24:07;;;;;;;3.43;3.13;;;;;;;;;;5121630;28;20432;-90
2021/05/16 06:26:42;;;;;;;5.23;2.47;;;;;;;;;;5121365;28;20495;-88
2021/05/16 06:35:16;;;;;;;2.57;2.37;;;12.70;99.90;;;;;;5113514;28;20440;-89
2021/05/16 06:38:00;;;;;;;2.30;2.20;;;;;;;;;;5114088;28;20436;-88
2021/05/16 06:40:47;;;;;;;2.70;2.20;;;;;;;;;;5109691;28;20495;-87
2021/05/16 06:43:40;;;;;;;2.20;2.00;;;;;;;;;;5111179;28;20431;-87
2021/05/16 06:46:12;;;;;;;2.33;1.90;;;;;;;;;;5113558;28;20480;-87
2021/05/16 06:48:44;;;;;;;2.47;2.27;;;;;;;;;;5111752;28;20459;-87
2021/05/16 06:51:23;;;;;;;2.00;1.90;;;;;;;;;;5112026;28;20474;-87
2021/05/16 06:54:17;;;;;;;3.50;1.70;;;;;;;;;;5111178;28;20447;-88
2021/05/16 06:59:53;;;;;;;2.03;1.70;;;;;;;;;;5086891;28;20460;-87
2021/05/16 07:02:22;;;;;;;1.70;1.60;;;;;;;;;;5109884;28;20465;-88
2021/05/16 07:04:53;;;;;;;2.17;1.73;;;;;;;;;;5111727;28;20448;-88
2021/05/16 07:10:54;;;;;;;;;;;;;;;;;;;;;
2021/05/16 07:13:33;;;;;;;4.30;2.90;;;;;;;;;;4985102;28;20480;-89
2021/05/16 07:16:00;;;;;;;3.20;2.90;;;;;;;;;;5111509;28;20446;-88
2021/05/16 07:18:34;;;;;;;3.77;3.00;;;;;;;;;;5112570;28;20446;-88
2021/05/16 07:21:12;;;;;;;3.63;3.33;;;;;;;;;;5111920;28;20438;-88
2021/05/16 07:23:42;;;;;;;3.80;3.50;;;;;;;;;;5113871;28;20414;-88
2021/05/16 07:26:20;;;;;;;4.30;3.13;;;;;;;;;;5115173;28;20475;-88
2021/05/16 07:28:50;;;;;;;4.23;3.93;;;;;;;;;;5114453;28;20507;-88
2021/05/16 07:31:22;;;;;;;3.83;3.50;;;;;;;;;;5111773;28;20498;-87
2021/05/16 07:34:17;;;;;;;4.23;3.83;;;;;;;;;;5109680;28;20459;-87
2021/05/16 07:36:56;;;;;;;3.43;3.13;;;;;;;;;;5117122;28;20424;-87
2021/05/16 07:39:25;;;;;;;4.10;3.80;;;;;;;;;;5116392;28;20451;-89
2021/05/16 07:42:09;;;;;;;5.10;3.17;;;;;;;;;;5114338;28;20460;-87
2021/05/16 07:44:49;;;;;;;4.93;3.50;;;;;;;;;;5111826;28;20527;-88
2021/05/16 07:50:38;;;;;;;3.43;3.23;;;;;;;;;;5079294;28;20516;-88
2021/05/16 07:53:25;;;;;;;3.37;3.10;;;;;;;;;;5112415;28;20404;-88
2021/05/16 07:55:58;;;;;;;3.60;3.30;;;;;;;;;;5112908;28;20435;-87
2021/05/16 07:58:33;;;;;;;4.00;3.40;;;;;;;;;;5107678;28;20938;-88
2021/05/16 08:01:17;;;;;;;3.40;3.10;;;;;;;;;;5110817;28;20446;-88
2021/05/16 08:03:52;;;;;;;3.43;3.13;;;;;;;;;;5111623;28;20456;-88
2021/05/16 08:06:27;;;;;;;4.23;3.77;;;;;;;;;;5112592;28;20475;-89
2021/05/16 08:11:53;;;;;;;4.90;4.50;;;;;;;;;;5110985;28;20446;-88
2021/05/16 08:14:21;;;;;;;4.90;3.70;;;;;;;;;;5109694;28;20432;-87
2021/05/16 08:17:03;;;;;;;3.10;2.90;;;12.90;99.90;;;;;;5106246;28;20444;-87
2021/05/16 08:19:39;;;;;;;4.50;3.20;;;;;;;;;;5112273;28;20442;-88
2021/05/16 08:22:22;;;;;;;2.30;2.10;;;;;;;;;;5113258;28;20423;-88
2021/05/16 08:25:01;;;;;;;3.20;3.00;;;;;;;;;;5110867;28;20924;-87
2021/05/16 08:30:36;;;;;;;2.63;1.90;;;13.00;99.90;;;;;;5115979;28;20456;-88
2021/05/16 08:39:41;;;;;;;3.37;2.30;;;;;;;;;;5113051;28;20431;-89
2021/05/16 08:42:31;;;;;;;2.30;2.10;;;13.20;99.90;;;;;;5113835;28;20925;-88
2021/05/16 08:45:32;;;;;;;3.43;2.50;;;13.30;99.90;;;;;;5113221;28;20543;-88
2021/05/16 09:08:07;;;;;;;2.53;2.17;;;13.90;99.90;;;;;;4994141;23;21134;-83
2021/05/16 09:10:34;;;;;;;2.47;2.30;;;13.90;99.90;;;;;;5018338;28;20474;-81
2021/05/16 09:13:16;;;;;;;2.20;2.00;;;14.20;99.90;;;;;;5017198;28;20435;-80
2021/05/16 09:15:42;;;;;;;2.23;2.13;;;14.00;99.90;;;;;;5016935;28;20427;-82
2021/05/16 09:18:08;;;;;;;2.50;2.30;;;13.90;99.90;;;;;;5019415;28;20470;-81
2021/05/16 09:20:35;;;;;;;4.70;3.70;;;13.80;99.90;;;;;;5019807;28;20456;-84
2021/05/16 09:23:01;;;;;;;5.00;4.50;;;13.60;99.90;;;;;;5018461;28;20439;-83
2021/05/16 09:25:31;;;;;;;3.00;2.80;;;13.60;99.90;;;;;;5019776;28;20450;-82
2021/05/16 09:28:11;;;;;;;3.00;2.60;;;13.60;99.90;;;;;;5020373;28;20494;-79
2021/05/16 09:30:41;;;;;;;3.70;2.63;;;13.70;99.90;;;;;;5017896;28;20442;-82
2021/05/16 09:33:08;;;;;;;3.10;2.47;;;13.90;99.90;;;;;;5017974;28;20483;-83
2021/05/16 09:35:38;;;;;;;3.10;2.30;;;14.00;99.90;;;;;;5015774;28;20443;-79
2021/05/16 09:38:09;;;;;;;2.33;2.13;;;14.20;99.90;;;;;;5018117;28;20802;-83
2021/05/16 09:40:40;;;;;;;2.80;2.60;;;14.30;99.90;;;;;;5018512;28;20436;-80
2021/05/16 09:43:15;;;;;;;2.47;2.20;;;14.70;99.90;;;;;;5017884;28;20431;-82
2021/05/16 09:45:44;;;;;;;2.00;1.90;;;14.90;99.90;;;;;;5016429;28;20976;-81
2021/05/16 09:48:28;;;;;;;2.17;1.93;;;15.20;99.90;;;;;;5015858;28;20931;-82
2021/05/16 09:51:08;;;;;;;2.93;1.80;;;15.30;99.90;;;;;;5016095;28;20897;-82
2021/05/16 09:53:48;;;;;;;2.37;2.27;;;15.20;99.90;;;;;;5016033;28;20431;-82
2021/05/16 09:56:20;;;;;;;3.17;2.70;;;;;;;;;;5021486;28;20815;-83
2021/05/16 09:58:46;;;;;;;3.30;3.10;;;15.20;99.90;;;;;;5018121;28;20465;-82
2021/05/16 10:01:14;;;;;;;2.43;1.80;;;15.00;99.90;;;;;;5018433;28;20451;-82
2021/05/16 10:03:40;;;;;;;3.20;2.43;;;15.10;99.90;;;;;;5024132;28;20456;-79
2021/05/16 10:06:07;;;;;;;6.53;2.10;;;15.00;99.90;;;;;;5025874;28;20530;-82
2021/05/16 10:08:34;;;;;;;2.77;2.17;;;15.00;99.90;;;;;;5028770;28;20472;-79
2021/05/16 10:11:01;;;;;;;3.07;2.70;;;14.20;99.90;;;;;;5026216;28;20443;-82
2021/05/16 10:13:30;;;;;;;2.35;1.83;;;14.40;99.90;;;;;;5026424;28;20423;-79
2021/05/16 10:15:57;;;;;;;3.70;3.10;;;14.20;99.90;;;;;;5025632;28;20253;-80
2021/05/16 10:18:26;;;;;;;4.80;3.13;;;14.20;99.90;;;;;;5030946;28;20477;-79
2021/05/16 10:20:53;;;;;;;7.70;4.00;;;14.20;99.90;;;;;;5026385;28;20439;-79
2021/05/16 10:23:31;;;;;;;2.77;2.57;;;14.30;99.90;;;;;;5030215;28;20469;-82
2021/05/16 10:26:22;;;;;;;6.37;3.40;;;14.50;99.90;;;;;;5020307;28;20447;-82
2021/05/16 10:29:04;;;;;;;3.73;2.93;;;14.50;99.90;;;;;;5020056;28;20439;-83
2021/05/16 10:31:45;;;;;;;3.83;3.13;;;14.80;99.90;;;;;;5020390;28;20444;-82
2021/05/16 10:34:43;;;;;;;4.53;2.27;;;15.10;99.90;;;;;;5017442;28;20427;-81
2021/05/16 10:37:13;;;;;;;5.30;2.60;;;15.40;99.90;;;;;;5019944;28;20446;-83
2021/05/16 10:39:55;;;;;;;6.93;2.83;;;15.70;99.90;;;;;;5020907;28;20543;-82
2021/05/16 10:42:36;;;;;;;4.10;2.20;;;15.80;99.90;;;;;;5021469;28;20447;-84
2021/05/16 10:45:12;;;;;;;2.80;1.97;;;15.80;99.90;;;;;;5026167;28;20431;-82
2021/05/16 10:47:56;;;;;;;4.57;2.17;;;15.40;99.90;;;;;;5025502;28;20498;-80
2021/05/16 10:50:35;;;;;;;4.43;2.90;;;15.30;99.90;;;;;;5018162;28;20438;-81
2021/05/16 10:53:03;;;;;;;4.80;1.80;;;15.30;99.90;;;;;;5018331;28;20516;-80
2021/05/16 10:55:31;;;;;;;3.90;2.00;;;15.20;99.90;;;;;;5018989;28;20455;-81
2021/05/16 10:57:58;;;;;;;4.67;2.20;;;15.40;99.90;;;;;;5019984;28;20466;-83
2021/05/16 11:00:25;;;;;;;2.60;1.93;;;15.70;99.90;;;;;;5020729;28;20465;-81
2021/05/16 11:02:59;;;;;;;2.20;1.70;;;15.70;99.90;;;;;;5020458;28;20450;-82
2021/05/16 11:05:58;;;;;;;4.13;2.60;;;15.80;99.90;;;;;;5020749;28;20474;-81
2021/05/16 11:09:07;;;;;;;1.80;1.70;;;15.70;99.90;;;;;;5018777;28;20477;-81
2021/05/16 11:11:35;;;;;;;1.60;1.50;;;15.60;99.90;;;;;;5009397;28;20451;-78
2021/05/16 11:14:02;;;;;;;6.80;2.80;;;15.30;99.90;;;;;;5032357;28;20451;-78
2021/05/16 11:16:28;;;;;;;9.20;4.00;;;15.40;99.90;;;;;;5031943;28;20458;-78
2021/05/16 11:18:54;;;;;;;5.23;2.60;;;15.50;99.90;;;;;;5020802;28;20452;-78
2021/05/16 11:21:21;;;;;;;7.10;3.07;;;15.40;99.90;;;;;;5021650;28;20477;-79
2021/05/16 11:23:49;;;;;;;5.70;2.40;;;15.60;99.90;;;;;;5019091;28;20780;-80
2021/05/16 11:26:21;;;;;;;3.30;2.20;;;15.70;99.90;;;;;;5019102;28;20467;-81
2021/05/16 11:28:56;;;;;;;5.60;2.37;;;16.00;99.90;;;;;;5017372;28;20476;-81
2021/05/16 11:31:25;;;;;;;5.33;1.80;;;16.30;99.90;;;;;;5017648;28;20495;-80
2021/05/16 11:33:52;;;;;;;2.47;1.80;;;16.50;99.90;;;;;;5018582;28;20534;-79
2021/05/16 11:36:21;;;;;;;2.77;2.27;;;16.70;99.90;;;;;;5028661;28;20475;-80
2021/05/16 11:38:51;;;;;;;4.43;2.60;;;16.50;99.90;;;;;;5025740;28;20448;-79
2021/05/16 11:41:39;;;;;;;6.57;1.97;;;16.40;99.90;;;;;;5025394;28;20443;-80
2021/05/16 11:44:07;;;;;;;5.17;2.20;;;16.40;99.90;;;;;;5014303;28;20447;-80
2021/05/16 11:46:38;;;;;;;3.77;1.63;;;16.70;99.90;;;;;;5019460;28;20520;-79
2021/05/16 11:49:04;;;;;;;2.83;1.63;;;16.80;99.90;;;;;;5019832;28;20436;-79
2021/05/16 11:51:32;;;;;;;2.47;1.83;;;17.10;99.90;;;;;;5020107;28;20451;-79
2021/05/16 11:54:00;;;;;;;5.73;3.03;;;17.30;99.90;;;;;;5020062;28;20458;-80
2021/05/16 11:56:28;;;;;;;4.83;2.43;;;17.30;99.90;;;;;;5021593;28;20479;-78
2021/05/16 11:58:56;;;;;;;1.33;1.13;;;17.20;99.90;;;;;;5020398;28;20483;-79
2021/05/16 12:01:25;;;;;;;2.50;1.60;;;17.10;99.90;;;;;;5017524;28;20812;-79
2021/05/16 12:03:59;;;;;;;2.30;2.10;;;17.20;99.90;;;;;;5016593;28;20432;-80
2021/05/16 12:06:26;;;;;;;2.80;1.67;;;17.60;99.90;;;;;;5015521;28;20562;-78
2021/05/16 12:09:00;;;;;;;2.10;1.70;;;17.10;99.90;;;;;;5016605;28;20432;-78
2021/05/16 12:11:29;;;;;;;2.07;1.50;;;17.10;99.90;;;;;;5027336;28;20462;-78
2021/05/16 12:14:04;;;;;;;2.40;1.60;;;17.90;99.90;;;;;;5031794;28;20486;-79
2021/05/16 12:16:31;;;;;;;2.70;1.63;;;17.10;99.90;;;;;;5027370;28;20483;-79
2021/05/16 12:18:58;;;;;;;2.20;1.77;;;17.10;99.90;;;;;;5029135;28;20520;-78
2021/05/16 12:21:25;;;;;;;1.90;1.80;;;17.10;99.90;;;;;;5027670;28;20452;-78
2021/05/16 12:23:54;;;;;;;3.37;1.70;;;16.80;99.90;;;;;;5026348;28;20444;-78
2021/05/16 12:26:20;;;;;;;3.80;2.93;;;16.90;99.90;;;;;;5018363;28;20471;-79
2021/05/16 12:28:47;;;;;;;3.70;2.23;;;17.20;99.90;;;;;;5017951;28;20950;-78
2021/05/16 12:31:14;;;;;;;3.03;1.73;;;17.30;99.90;;;;;;5017956;28;20463;-78
2021/05/16 12:33:41;;;;;;;3.43;1.50;;;17.00;99.90;;;;;;5015003;28;20458;-78
2021/05/16 12:36:08;;;;;;;3.33;1.53;;;17.30;99.90;;;;;;5014927;28;20447;-78
2021/05/16 12:38:41;;;;;;;2.33;1.60;;;17.50;99.90;;;;;;5016053;28;20448;-79
2021/05/16 12:41:17;;;;;;;1.20;1.10;;;17.50;99.90;;;;;;5017367;28;20436;-78
2021/05/16 12:43:44;;;;;;;3.70;1.60;;;17.10;99.90;;;;;;5015415;28;20433;-78
2021/05/16 12:46:10;;;;;;;2.50;1.70;;;16.80;99.90;;;;;;5017374;28;20472;-79
2021/05/16 12:48:40;;;;;;;3.73;1.50;;;16.30;99.90;;;;;;5018673;28;20987;-81
2021/05/16 12:51:07;;;;;;;6.53;1.50;;;;;;;;;;5023185;28;20507;-86
2021/05/16 12:53:38;;;;;;;1.10;1.00;;;16.00;99.90;;;;;;5025244;28;20440;-87
2021/05/16 12:56:13;;;;;;;2.67;1.60;;;15.70;99.90;;;;;;5021782;28;20454;-83
2021/05/16 12:58:52;;;;;;;2.47;2.20;;;15.80;99.90;;;;;;5017525;28;20451;-85
2021/05/16 13:01:27;;;;;;;2.07;1.37;;;15.50;99.90;;;;;;5022134;28;20427;-85
2021/05/16 13:03:55;;;;;;;1.77;1.50;;;15.40;99.90;;;;;;5023725;28;20500;-80
2021/05/16 13:06:27;;;;;;;3.93;1.80;;;15.00;99.90;;;;;;5031019;28;20467;-83
2021/05/16 13:09:07;;;;;;;2.27;2.07;;;14.50;99.90;;;;;;5032506;28;20443;-87
2021/05/16 13:11:45;;;;;;;6.97;2.60;;;14.70;99.90;;;;;;5022440;28;20408;-79
2021/05/16 13:14:11;;;;;;;3.30;2.13;;;;;;;;;;5018206;28;20435;-85
2021/05/16 13:16:38;;;;;;;1.70;1.60;;;;;;;;;;5023956;28;20463;-80
2021/05/16 13:19:05;;;;;;;4.90;1.87;;;;;;;;;;5025606;28;20458;-79
2021/05/16 13:21:32;;;;;;;4.10;3.03;;;14.60;99.90;;;;;;5030367;28;20791;-80
2021/05/16 13:24:09;;;;;;;4.17;1.70;;;14.70;99.90;;;;;;5030905;28;20435;-81
2021/05/16 13:26:43;;;;;;;3.07;1.70;;;15.00;99.90;;;;;;5031769;28;20494;-80
2021/05/16 13:29:10;;;;;;;1.90;1.53;;;15.00;99.90;;;;;;5033860;28;20506;-81
2021/05/16 13:31:37;;;;;;;2.80;1.93;;;14.90;99.90;;;;;;5033791;28;20451;-81
2021/05/16 13:34:04;;;;;;;5.03;2.03;;;15.40;99.90;;;;;;5033823;28;20473;-81
2021/05/16 13:36:31;;;;;;;3.10;2.07;;;15.10;99.90;;;;;;5032469;28;20471;-80
2021/05/16 13:38:57;;;;;;;3.90;1.77;;;15.80;99.90;;;;;;5031926;28;20443;-81
2021/05/16 13:41:24;;;;;;;3.53;1.73;;;16.20;99.90;;;;;;5032255;28;20446;-81
2021/05/16 13:43:50;;;;;;;3.83;2.30;;;16.50;99.90;;;;;;5029305;28;20651;-79
2021/05/16 13:46:16;;;;;;;2.43;2.20;;;16.70;99.90;;;;;;5022744;28;20474;-83
2021/05/16 13:48:42;;;;;;;3.97;1.50;;;16.70;99.90;;;;;;5019994;28;20447;-81
2021/05/16 13:51:09;;;;;;;2.43;1.43;;;16.90;99.90;;;;;;5019204;28;20448;-81
2021/05/16 13:53:36;;;;;;;4.10;2.13;;;16.90;99.90;;;;;;5023868;28;20467;-80
2021/05/16 13:56:02;;;;;;;2.10;1.50;;;17.00;99.90;;;;;;5023677;28;20455;-82
2021/05/16 13:58:29;;;;;;;4.93;1.80;;;17.10;99.90;;;;;;5024094;28;20942;-83
2021/05/16 14:00:55;;;;;;;5.70;2.67;;;17.20;99.90;;;;;;5023316;28;20946;-82
2021/05/16 14:03:22;;;;;;;6.00;2.00;;;17.30;99.90;;;;;;5023536;28;20439;-82
2021/05/16 14:05:49;;;;;;;2.03;1.83;;;;;;;;;;5022478;28;20515;-82
2021/05/16 14:08:15;;;;;;;3.60;2.30;;;17.50;99.90;;;;;;5025820;28;20490;-81
2021/05/16 14:10:42;;;;;;;2.23;1.60;;;17.60;99.90;;;;;;5026252;28;20451;-82
2021/05/16 14:13:08;;;;;;;1.93;1.20;;;17.50;99.90;;;;;;5030047;28;20478;-82
2021/05/16 14:15:35;;;;;;;6.80;2.33;;;17.20;99.90;;;;;;5028362;28;20443;-82
2021/05/16 14:18:01;;;;;;;2.60;1.87;;;17.50;99.90;;;;;;5027587;28;20483;-80
2021/05/16 14:20:27;;;;;;;2.87;2.50;;;17.20;99.90;;;;;;5027594;28;20443;-81
2021/05/16 14:22:53;;;;;;;2.63;1.63;;;;;;;;;;5027081;28;20448;-82
2021/05/16 14:25:20;;;;;;;4.70;2.97;;;17.50;99.90;;;;;;5027546;28;20458;-79
2021/05/16 14:27:46;;;;;;;6.10;1.93;;;17.50;99.90;;;;;;5027481;28;20495;-81
2021/05/16 14:30:14;;;;;;;7.17;2.93;;;17.50;99.90;;;;;;5024076;28;20554;-82
2021/05/16 14:32:42;;;;;;;2.80;1.80;;;17.40;99.90;;;;;;5027739;28;20447;-82
2021/05/16 14:35:09;;;;;;;3.23;1.50;;;17.00;99.90;;;;;;5029059;28;20448;-81
2021/05/16 14:37:36;;;;;;;3.27;1.60;;;17.50;99.90;;;;;;5021596;28;20463;-82
2021/05/16 14:40:03;;;;;;;6.20;2.60;;;17.10;99.90;;;;;;5019995;28;20531;-82
2021/05/16 14:42:30;;;;;;;7.30;2.93;;;17.10;99.90;;;;;;5020730;28;20471;-82
2021/05/16 14:44:56;;;;;;;5.67;1.70;;;16.80;99.90;;;;;;5020650;28;20449;-82
2021/05/16 14:47:23;;;;;;;2.20;1.50;;;17.40;99.90;;;;;;5023776;28;20485;-82
2021/05/16 14:49:50;;;;;;;4.03;1.90;;;17.50;99.90;;;;;;5020260;28;20856;-82
2021/05/16 14:52:17;;;;;;;4.83;3.07;;;17.80;99.90;;;;;;5019705;28;20487;-83